Ayer, MA (01432)

10:38 PM EDT on July 23, 2016 (GMT -0400)
Ayer Center | | Change Station

Elev 230 ft 42.56 °N, 71.59 °W | Updated 10 seconds ago

Clear
Clear
64.8 °F
Feels Like 64.8 °F
N
0.0
Wind Variable Wind from West
Gusts 0.0 mph

Today
High -- | Low -- °F
--% Chance of Precip.
Yesterday
High -- | Low -- °F
Precip. -- in
Pressure 29.86 in
Visibility 10.0 miles
Clouds Clear
Dew Point 56 °F
Humidity 72%
Rainfall 0.02 in
Snow Depth Not available.
5:29 AM 8:15 PM
Waning Gibbous, 80% visible
METAR KFIT 240152Z AUTO 31008KT 10SM CLR 22/15 A2987 RMK AO2 SLP112 T02170150
Pressure 29.86 in
Visibility 10.0 miles
Clouds Clear
Dew Point 56 °F
Humidity 72%
Rainfall 0.02 in
Snow Depth Not available.
5:29 AM 8:15 PM
Waning Gibbous, 80% visible
METAR KFIT 240152Z AUTO 31008KT 10SM CLR 22/15 A2987 RMK AO2 SLP112 T02170150

10-Day Weather Forecast

Almanac

Astronomy

Jul. 23, 2016 Rise Set
Actual Time
Civil Twilight
Nautical Twilight
Astronomical Twilight
Moon
Length of Visible Light
Length of Day
Tomorrow will be .
, % of the Moon is Illuminated

Today's Extremes

State Highs State Lows

Community

WunderPhotos

Upload Photos

1,927,000 photos uploaded!

WunderBlog® & News

Nearby

Air Quality

  Air Quality AQ Index Pollutant
Not available.

Snow Depth

Station Depth Elevation

Earthquake Activity

City Distance Mag. Time & Date
Minimum magnitude displayed is 2.5.

Coastal Water Temperatures

Place Temperature

Stations

Nearby Weather Stations

Station Location Temp. Windchill Dew Point Humidity Wind Precip. Elev Updated Type
                   

Watches & Warnings

There are currently no watches in effect.